Flight Track Log - Related Links

Times and Time Zones

All times are in EDT time to prevent confusion due to time zone crossing. See the RPA4911 flight status page for this flight to view local times or setup timezone preferences in your user account.

Time Position Orientation Groundspeed Altitude Reporting Facility
EDT Latitude Longitude Course Direction KTS MPH feet Rate Location/Type
Sun 05:53:18 AM 42.7236 -73.8081 200° South 168 193 1,100  Level Boston Center
Sun 05:53:54 AM 42.6881 -73.8100 182° South 202 232 2,200 2,047 Climbing Boston Center
Sun 05:54:43 AM 42.6667 -73.8633 241° Southwest 233 268 4,000 2,257 Climbing Boston Center
Sun 05:55:43 AM 42.6511 -73.9392 254° West 233 268 6,300 2,250 Climbing Boston Center
Sun 05:56:00 AM 42.3938 -73.8671 197° South  Level Estimated
Sun 05:56:43 AM 42.5883 -73.9489 187° South 186 214 8,500  Level Boston Center
Sun 05:57:00 AM 42.3200 -73.9360 215° Southwest  Level FlightAware Approximate
Sun 05:57:43 AM 42.5236 -73.9586 186° South 219 252 10,800  Level Boston Center
Sun 05:58:00 AM 42.2309 -73.9490 200° South  Level Estimated
Sun 05:58:43 AM 42.4608 -73.9739 190° South 237 273 11,900  Level Boston Center
Sun 05:59:43 AM 42.3836 -73.9944 191° South 270 311 12,000 100 Climbing Boston Center
Sun 06:00:43 AM 42.3144 -74.0125 191° South 301 346 12,100 50 Climbing Boston Center
Sun 06:01:43 AM 42.2119 -74.0406 191° South 319 367 12,100  Level Boston Center
Sun 06:02:43 AM 42.1406 -74.0753 200° South 319 367 12,100  Level Boston Center
Sun 06:03:43 AM 42.0567 -74.1122 198° South 319 367 12,100  Level Boston Center
Sun 06:04:43 AM 41.9686 -74.1517 198° South 319 367 12,100  Level Boston Center
Sun 06:05:43 AM 41.8889 -74.1831 196° South 311 358 12,100  Level Boston Center
Sun 06:06:43 AM 41.7986 -74.2222 198° South 316 364 12,100  Level Boston Center
Sun 06:07:43 AM 41.7231 -74.2564 199° South 316 364 12,100 -682 Level Boston Center
Sun 06:08:55 AM 41.6203 -74.3006 198° South 316 364 10,600 -1,273 Descending Boston Center
Sun 06:09:55 AM 41.5508 -74.3292 197° South 289 333 9,300 -1,180 Descending Boston Center
Sun 06:11:00 AM 41.4691 -74.3574 196° South  Level FlightAware Approximate
Sun 06:11:53 AM 41.4167 -74.3833 196° South 250 288 7,100  Level New York TRACON
Sun 06:12:53 AM 41.3500 -74.4167 201° Southwest 239 275 7,100  Level New York TRACON
Sun 06:13:53 AM 41.2833 -74.4500 201° Southwest 246 283 7,100 -737 Level New York TRACON
Sun 06:14:47 AM 41.2167 -74.4167 159° South 261 300 5,700 -1,000 Descending New York TRACON
Sun 06:15:53 AM 41.1500 -74.3667 151° Southeast 264 304 5,100 -667 Descending New York TRACON
Sun 06:16:53 AM 41.1000 -74.3000 135° Southeast 247 284 4,300 -500 Descending New York TRACON
Sun 06:17:53 AM 41.0500 -74.2500 143° Southeast 244 281 4,100 -150 Descending New York TRACON
Sun 06:18:53 AM 40.9833 -74.2000 150° Southeast 256 295 4,000 -500 Descending New York TRACON
Sun 06:19:53 AM 40.9333 -74.1500 143° Southeast 245 282 3,100 -474 Descending New York TRACON
Sun 06:20:47 AM 40.8833 -74.1000 143° Southeast 241 277 3,100  Level New York TRACON

Login

Don't have an account? Register now (free) for customized features, flight alerts, and more!